sensor_id;sensor_type;location;lat;lon;timestamp;P1;durP1;ratioP1;P2;durP2;ratioP2
11018;SDS011;5563;52.296;6.806;2023-02-22T00:02:10;37.50;;;20.98;;
11018;SDS011;5563;52.296;6.806;2023-02-22T00:04:59;35.67;;;20.50;;
11018;SDS011;5563;52.296;6.806;2023-02-22T00:07:26;40.55;;;21.17;;
11018;SDS011;5563;52.296;6.806;2023-02-22T00:10:06;39.45;;;21.83;;
11018;SDS011;5563;52.296;6.806;2023-02-22T00:12:39;35.70;;;20.80;;
11018;SDS011;5563;52.296;6.806;2023-02-22T00:15:25;38.33;;;20.55;;
11018;SDS011;5563;52.296;6.806;2023-02-22T00:17:55;37.90;;;21.15;;
11018;SDS011;5563;52.296;6.806;2023-02-22T00:20:29;38.17;;;21.60;;
11018;SDS011;5563;52.296;6.806;2023-02-22T00:23:03;37.17;;;21.60;;
11018;SDS011;5563;52.296;6.806;2023-02-22T00:28:28;35.55;;;20.25;;
11018;SDS011;5563;52.296;6.806;2023-02-22T00:30:56;42.70;;;22.95;;
11018;SDS011;5563;52.296;6.806;2023-02-22T00:33:33;37.80;;;21.60;;
11018;SDS011;5563;52.296;6.806;2023-02-22T00:36:02;36.67;;;20.55;;
11018;SDS011;5563;52.296;6.806;2023-02-22T00:38:39;37.42;;;20.63;;
11018;SDS011;5563;52.296;6.806;2023-02-22T00:41:07;42.45;;;21.83;;
11018;SDS011;5563;52.296;6.806;2023-02-22T00:43:42;36.60;;;21.25;;
11018;SDS011;5563;52.296;6.806;2023-02-22T00:46:21;42.15;;;22.27;;
11018;SDS011;5563;52.296;6.806;2023-02-22T00:48:57;37.97;;;20.38;;
11018;SDS011;5563;52.296;6.806;2023-02-22T00:51:28;39.50;;;20.95;;
11018;SDS011;5563;52.296;6.806;2023-02-22T00:54:04;39.40;;;19.23;;
11018;SDS011;5563;52.296;6.806;2023-02-22T00:56:46;38.47;;;20.50;;
11018;SDS011;5563;52.296;6.806;2023-02-22T00:59:22;43.33;;;21.88;;
11018;SDS011;5563;52.296;6.806;2023-02-22T01:01:49;41.53;;;21.45;;
11018;SDS011;5563;52.296;6.806;2023-02-22T01:04:36;42.15;;;22.23;;
11018;SDS011;5563;52.296;6.806;2023-02-22T01:07:10;41.92;;;21.95;;
11018;SDS011;5563;52.296;6.806;2023-02-22T01:09:44;42.05;;;22.35;;
11018;SDS011;5563;52.296;6.806;2023-02-22T01:12:27;40.58;;;21.02;;
11018;SDS011;5563;52.296;6.806;2023-02-22T01:14:55;44.45;;;23.48;;
11018;SDS011;5563;52.296;6.806;2023-02-22T01:17:32;45.60;;;24.50;;
11018;SDS011;5563;52.296;6.806;2023-02-22T01:20:05;46.97;;;24.23;;
11018;SDS011;5563;52.296;6.806;2023-02-22T01:22:51;45.60;;;23.88;;
11018;SDS011;5563;52.296;6.806;2023-02-22T01:25:23;44.88;;;23.48;;
11018;SDS011;5563;52.296;6.806;2023-02-22T01:28:06;45.17;;;23.45;;
11018;SDS011;5563;52.296;6.806;2023-02-22T01:30:53;47.97;;;24.65;;
11018;SDS011;5563;52.296;6.806;2023-02-22T01:33:30;48.05;;;25.80;;
11018;SDS011;5563;52.296;6.806;2023-02-22T01:35:57;53.20;;;26.95;;
11018;SDS011;5563;52.296;6.806;2023-02-22T01:38:34;44.88;;;22.65;;
11018;SDS011;5563;52.296;6.806;2023-02-22T01:41:01;53.45;;;26.30;;
11018;SDS011;5563;52.296;6.806;2023-02-22T01:43:37;51.88;;;26.30;;
11018;SDS011;5563;52.296;6.806;2023-02-22T01:46:27;54.00;;;26.05;;
11018;SDS011;5563;52.296;6.806;2023-02-22T01:49:02;52.50;;;26.35;;
11018;SDS011;5563;52.296;6.806;2023-02-22T01:51:43;54.63;;;27.98;;
11018;SDS011;5563;52.296;6.806;2023-02-22T01:54:31;57.58;;;29.33;;
11018;SDS011;5563;52.296;6.806;2023-02-22T01:57:15;58.70;;;29.98;;
11018;SDS011;5563;52.296;6.806;2023-02-22T01:59:55;59.83;;;31.27;;
11018;SDS011;5563;52.296;6.806;2023-02-22T02:02:30;60.53;;;31.15;;
11018;SDS011;5563;52.296;6.806;2023-02-22T02:09:03;66.22;;;31.52;;
11018;SDS011;5563;52.296;6.806;2023-02-22T02:11:47;62.80;;;32.00;;
11018;SDS011;5563;52.296;6.806;2023-02-22T02:14:39;61.03;;;30.35;;
11018;SDS011;5563;52.296;6.806;2023-02-22T02:17:07;64.68;;;31.50;;
11018;SDS011;5563;52.296;6.806;2023-02-22T02:22:40;65.32;;;32.58;;
11018;SDS011;5563;52.296;6.806;2023-02-22T02:46:27;77.78;;;32.25;;
11018;SDS011;5563;52.296;6.806;2023-02-22T02:52:44;76.57;;;33.13;;
11018;SDS011;5563;52.296;6.806;2023-02-22T02:55:20;72.60;;;31.90;;
11018;SDS011;5563;52.296;6.806;2023-02-22T02:57:48;70.97;;;30.52;;
11018;SDS011;5563;52.296;6.806;2023-02-22T03:00:23;73.22;;;32.10;;
11018;SDS011;5563;52.296;6.806;2023-02-22T03:03:09;68.68;;;32.95;;
11018;SDS011;5563;52.296;6.806;2023-02-22T03:06:20;64.50;;;30.75;;
11018;SDS011;5563;52.296;6.806;2023-02-22T03:15:11;64.20;;;30.52;;
11018;SDS011;5563;52.296;6.806;2023-02-22T03:17:53;67.40;;;30.75;;
11018;SDS011;5563;52.296;6.806;2023-02-22T03:24:09;63.97;;;28.55;;
11018;SDS011;5563;52.296;6.806;2023-02-22T03:26:56;62.15;;;28.58;;
11018;SDS011;5563;52.296;6.806;2023-02-22T03:34:10;71.15;;;28.73;;
11018;SDS011;5563;52.296;6.806;2023-02-22T03:37:00;70.30;;;28.77;;
11018;SDS011;5563;52.296;6.806;2023-02-22T03:40:32;72.22;;;30.40;;
11018;SDS011;5563;52.296;6.806;2023-02-22T03:43:19;72.03;;;30.00;;
11018;SDS011;5563;52.296;6.806;2023-02-22T03:45:57;68.47;;;30.05;;
11018;SDS011;5563;52.296;6.806;2023-02-22T03:48:37;69.28;;;28.83;;
11018;SDS011;5563;52.296;6.806;2023-02-22T03:52:00;72.97;;;29.95;;
11018;SDS011;5563;52.296;6.806;2023-02-22T03:54:37;67.90;;;28.83;;
11018;SDS011;5563;52.296;6.806;2023-02-22T04:00:47;64.75;;;28.15;;
11018;SDS011;5563;52.296;6.806;2023-02-22T04:03:26;70.53;;;28.92;;
11018;SDS011;5563;52.296;6.806;2023-02-22T04:05:52;75.75;;;30.25;;
11018;SDS011;5563;52.296;6.806;2023-02-22T04:08:26;71.20;;;30.08;;
11018;SDS011;5563;52.296;6.806;2023-02-22T04:10:59;70.20;;;29.75;;
11018;SDS011;5563;52.296;6.806;2023-02-22T04:13:46;66.88;;;28.05;;
11018;SDS011;5563;52.296;6.806;2023-02-22T04:16:28;74.13;;;30.75;;
11018;SDS011;5563;52.296;6.806;2023-02-22T04:18:58;73.38;;;29.75;;
11018;SDS011;5563;52.296;6.806;2023-02-22T04:21:45;72.03;;;29.98;;
11018;SDS011;5563;52.296;6.806;2023-02-22T04:24:12;75.40;;;30.95;;
11018;SDS011;5563;52.296;6.806;2023-02-22T04:26:46;71.15;;;28.90;;
11018;SDS011;5563;52.296;6.806;2023-02-22T04:29:22;78.35;;;29.95;;
11018;SDS011;5563;52.296;6.806;2023-02-22T04:32:09;72.47;;;29.40;;
11018;SDS011;5563;52.296;6.806;2023-02-22T04:34:43;70.57;;;29.42;;
11018;SDS011;5563;52.296;6.806;2023-02-22T04:37:15;72.25;;;27.65;;
11018;SDS011;5563;52.296;6.806;2023-02-22T04:40:03;72.78;;;29.30;;
11018;SDS011;5563;52.296;6.806;2023-02-22T04:42:43;64.32;;;28.40;;
11018;SDS011;5563;52.296;6.806;2023-02-22T04:48:54;79.63;;;31.05;;
11018;SDS011;5563;52.296;6.806;2023-02-22T04:51:44;79.65;;;31.27;;
11018;SDS011;5563;52.296;6.806;2023-02-22T04:54:32;74.28;;;29.63;;
11018;SDS011;5563;52.296;6.806;2023-02-22T05:03:43;75.68;;;29.08;;
11018;SDS011;5563;52.296;6.806;2023-02-22T05:06:17;76.32;;;29.55;;
11018;SDS011;5563;52.296;6.806;2023-02-22T05:08:44;77.82;;;30.20;;
11018;SDS011;5563;52.296;6.806;2023-02-22T05:11:13;77.88;;;29.98;;
11018;SDS011;5563;52.296;6.806;2023-02-22T05:17:22;77.88;;;29.40;;
11018;SDS011;5563;52.296;6.806;2023-02-22T05:19:58;86.45;;;32.28;;
11018;SDS011;5563;52.296;6.806;2023-02-22T05:22:33;77.53;;;30.80;;
11018;SDS011;5563;52.296;6.806;2023-02-22T05:25:09;80.05;;;30.77;;
11018;SDS011;5563;52.296;6.806;2023-02-22T05:27:58;80.88;;;29.90;;
11018;SDS011;5563;52.296;6.806;2023-02-22T05:30:35;81.90;;;30.65;;
11018;SDS011;5563;52.296;6.806;2023-02-22T05:33:07;77.07;;;30.30;;
11018;SDS011;5563;52.296;6.806;2023-02-22T05:35:54;82.07;;;31.17;;
11018;SDS011;5563;52.296;6.806;2023-02-22T05:38:21;82.30;;;31.55;;
11018;SDS011;5563;52.296;6.806;2023-02-22T05:41:02;82.20;;;32.38;;
11018;SDS011;5563;52.296;6.806;2023-02-22T05:43:50;89.78;;;31.83;;
11018;SDS011;5563;52.296;6.806;2023-02-22T05:46:31;79.85;;;30.27;;
11018;SDS011;5563;52.296;6.806;2023-02-22T05:49:04;78.68;;;30.48;;
11018;SDS011;5563;52.296;6.806;2023-02-22T05:51:38;93.63;;;33.40;;
11018;SDS011;5563;52.296;6.806;2023-02-22T05:54:07;85.18;;;34.08;;
11018;SDS011;5563;52.296;6.806;2023-02-22T05:56:43;92.25;;;33.60;;
11018;SDS011;5563;52.296;6.806;2023-02-22T05:59:22;98.78;;;35.28;;
11018;SDS011;5563;52.296;6.806;2023-02-22T06:05:37;91.03;;;34.95;;
11018;SDS011;5563;52.296;6.806;2023-02-22T06:08:11;89.65;;;34.10;;
11018;SDS011;5563;52.296;6.806;2023-02-22T06:13:53;98.35;;;35.60;;
11018;SDS011;5563;52.296;6.806;2023-02-22T06:16:23;98.55;;;36.63;;
11018;SDS011;5563;52.296;6.806;2023-02-22T06:19:00;100.30;;;37.15;;
11018;SDS011;5563;52.296;6.806;2023-02-22T06:21:30;96.53;;;35.53;;
11018;SDS011;5563;52.296;6.806;2023-02-22T06:24:22;101.97;;;36.80;;
11018;SDS011;5563;52.296;6.806;2023-02-22T06:27:00;102.90;;;38.60;;
11018;SDS011;5563;52.296;6.806;2023-02-22T06:33:19;119.05;;;39.22;;
11018;SDS011;5563;52.296;6.806;2023-02-22T06:35:55;117.70;;;39.95;;
11018;SDS011;5563;52.296;6.806;2023-02-22T06:38:29;122.18;;;40.38;;
11018;SDS011;5563;52.296;6.806;2023-02-22T06:41:03;106.43;;;39.10;;
11018;SDS011;5563;52.296;6.806;2023-02-22T06:43:33;119.15;;;38.95;;
11018;SDS011;5563;52.296;6.806;2023-02-22T06:49:53;113.32;;;37.25;;
11018;SDS011;5563;52.296;6.806;2023-02-22T06:55:43;128.70;;;40.70;;
11018;SDS011;5563;52.296;6.806;2023-02-22T06:58:17;125.50;;;41.38;;
11018;SDS011;5563;52.296;6.806;2023-02-22T07:00:45;127.38;;;39.17;;
11018;SDS011;5563;52.296;6.806;2023-02-22T07:03:20;113.82;;;38.35;;
11018;SDS011;5563;52.296;6.806;2023-02-22T07:05:54;126.13;;;41.97;;
11018;SDS011;5563;52.296;6.806;2023-02-22T07:08:42;128.02;;;41.10;;
11018;SDS011;5563;52.296;6.806;2023-02-22T07:11:10;138.07;;;43.72;;
11018;SDS011;5563;52.296;6.806;2023-02-22T07:13:44;116.22;;;37.92;;
11018;SDS011;5563;52.296;6.806;2023-02-22T07:16:21;131.93;;;39.30;;
11018;SDS011;5563;52.296;6.806;2023-02-22T07:19:08;126.63;;;38.70;;
11018;SDS011;5563;52.296;6.806;2023-02-22T07:21:35;124.30;;;41.00;;
11018;SDS011;5563;52.296;6.806;2023-02-22T07:24:12;111.68;;;37.83;;
11018;SDS011;5563;52.296;6.806;2023-02-22T07:26:39;104.63;;;38.63;;
11018;SDS011;5563;52.296;6.806;2023-02-22T07:29:16;122.72;;;39.15;;
11018;SDS011;5563;52.296;6.806;2023-02-22T07:31:43;121.78;;;37.72;;
11018;SDS011;5563;52.296;6.806;2023-02-22T07:34:18;125.05;;;40.05;;
11018;SDS011;5563;52.296;6.806;2023-02-22T07:36:54;109.38;;;36.70;;
11018;SDS011;5563;52.296;6.806;2023-02-22T07:39:24;113.35;;;37.60;;
11018;SDS011;5563;52.296;6.806;2023-02-22T07:42:01;112.70;;;38.10;;
11018;SDS011;5563;52.296;6.806;2023-02-22T07:44:36;105.88;;;37.83;;
11018;SDS011;5563;52.296;6.806;2023-02-22T07:47:10;114.22;;;37.15;;
11018;SDS011;5563;52.296;6.806;2023-02-22T07:49:38;112.93;;;37.58;;
11018;SDS011;5563;52.296;6.806;2023-02-22T07:52:23;112.10;;;36.13;;
11018;SDS011;5563;52.296;6.806;2023-02-22T07:54:57;107.53;;;36.30;;
11018;SDS011;5563;52.296;6.806;2023-02-22T07:57:37;114.68;;;37.80;;
11018;SDS011;5563;52.296;6.806;2023-02-22T08:00:04;111.50;;;38.38;;
11018;SDS011;5563;52.296;6.806;2023-02-22T08:02:42;114.22;;;38.50;;
11018;SDS011;5563;52.296;6.806;2023-02-22T08:05:15;103.55;;;38.25;;
11018;SDS011;5563;52.296;6.806;2023-02-22T08:07:52;110.32;;;37.70;;
11018;SDS011;5563;52.296;6.806;2023-02-22T08:10:28;109.70;;;36.90;;
11018;SDS011;5563;52.296;6.806;2023-02-22T08:13:06;106.95;;;35.33;;
11018;SDS011;5563;52.296;6.806;2023-02-22T08:18:51;101.85;;;35.33;;
11018;SDS011;5563;52.296;6.806;2023-02-22T08:21:18;110.30;;;38.45;;
11018;SDS011;5563;52.296;6.806;2023-02-22T08:23:53;96.40;;;36.10;;
11018;SDS011;5563;52.296;6.806;2023-02-22T08:26:32;101.03;;;36.40;;
11018;SDS011;5563;52.296;6.806;2023-02-22T08:29:19;96.97;;;32.72;;
11018;SDS011;5563;52.296;6.806;2023-02-22T08:31:59;94.55;;;35.40;;
11018;SDS011;5563;52.296;6.806;2023-02-22T08:34:41;93.55;;;34.85;;
11018;SDS011;5563;52.296;6.806;2023-02-22T08:37:15;96.72;;;35.75;;
11018;SDS011;5563;52.296;6.806;2023-02-22T08:39:43;90.90;;;32.97;;
11018;SDS011;5563;52.296;6.806;2023-02-22T08:42:30;83.20;;;31.15;;
11018;SDS011;5563;52.296;6.806;2023-02-22T08:44:57;86.90;;;33.67;;
11018;SDS011;5563;52.296;6.806;2023-02-22T08:47:33;89.45;;;32.92;;
11018;SDS011;5563;52.296;6.806;2023-02-22T08:50:03;105.65;;;35.67;;
11018;SDS011;5563;52.296;6.806;2023-02-22T08:52:37;84.22;;;33.42;;
11018;SDS011;5563;52.296;6.806;2023-02-22T08:55:07;86.88;;;31.10;;
11018;SDS011;5563;52.296;6.806;2023-02-22T08:57:41;84.35;;;33.97;;
11018;SDS011;5563;52.296;6.806;2023-02-22T09:00:08;88.47;;;33.58;;
11018;SDS011;5563;52.296;6.806;2023-02-22T09:02:45;82.82;;;33.78;;
11018;SDS011;5563;52.296;6.806;2023-02-22T09:05:12;79.50;;;34.08;;
11018;SDS011;5563;52.296;6.806;2023-02-22T09:07:49;88.93;;;31.52;;
11018;SDS011;5563;52.296;6.806;2023-02-22T09:10:17;75.95;;;31.10;;
11018;SDS011;5563;52.296;6.806;2023-02-22T09:13:02;77.57;;;28.92;;
11018;SDS011;5563;52.296;6.806;2023-02-22T09:15:45;71.65;;;29.33;;
11018;SDS011;5563;52.296;6.806;2023-02-22T09:18:19;74.07;;;29.63;;
11018;SDS011;5563;52.296;6.806;2023-02-22T09:20:46;71.25;;;28.50;;
11018;SDS011;5563;52.296;6.806;2023-02-22T09:23:24;69.88;;;29.27;;
11018;SDS011;5563;52.296;6.806;2023-02-22T09:25:52;61.80;;;26.73;;
11018;SDS011;5563;52.296;6.806;2023-02-22T09:28:29;60.78;;;27.05;;
11018;SDS011;5563;52.296;6.806;2023-02-22T09:30:56;59.88;;;26.23;;
11018;SDS011;5563;52.296;6.806;2023-02-22T09:33:33;61.85;;;26.30;;
11018;SDS011;5563;52.296;6.806;2023-02-22T09:36:06;72.40;;;28.92;;
11018;SDS011;5563;52.296;6.806;2023-02-22T09:42:27;65.15;;;27.92;;
11018;SDS011;5563;52.296;6.806;2023-02-22T09:45:07;65.07;;;27.75;;
11018;SDS011;5563;52.296;6.806;2023-02-22T09:47:48;63.13;;;27.23;;
11018;SDS011;5563;52.296;6.806;2023-02-22T09:50:46;55.67;;;26.38;;
11018;SDS011;5563;52.296;6.806;2023-02-22T09:53:25;67.88;;;29.88;;
11018;SDS011;5563;52.296;6.806;2023-02-22T09:56:11;62.88;;;28.80;;
11018;SDS011;5563;52.296;6.806;2023-02-22T10:01:47;57.42;;;27.85;;
11018;SDS011;5563;52.296;6.806;2023-02-22T10:04:31;57.92;;;26.25;;
11018;SDS011;5563;52.296;6.806;2023-02-22T10:07:22;63.67;;;27.48;;
11018;SDS011;5563;52.296;6.806;2023-02-22T10:09:51;60.55;;;28.42;;
11018;SDS011;5563;52.296;6.806;2023-02-22T10:26:55;59.20;;;28.15;;
11018;SDS011;5563;52.296;6.806;2023-02-22T10:29:40;63.97;;;28.48;;
11018;SDS011;5563;52.296;6.806;2023-02-22T10:32:45;60.80;;;29.13;;
11018;SDS011;5563;52.296;6.806;2023-02-22T10:35:23;61.38;;;29.85;;
11018;SDS011;5563;52.296;6.806;2023-02-22T10:37:55;60.33;;;30.67;;
11018;SDS011;5563;52.296;6.806;2023-02-22T10:40:35;57.97;;;29.70;;
11018;SDS011;5563;52.296;6.806;2023-02-22T10:43:13;59.25;;;31.30;;
11018;SDS011;5563;52.296;6.806;2023-02-22T10:45:47;55.20;;;30.23;;
11018;SDS011;5563;52.296;6.806;2023-02-22T10:48:19;53.97;;;30.60;;
11018;SDS011;5563;52.296;6.806;2023-02-22T10:50:58;56.33;;;31.05;;
11018;SDS011;5563;52.296;6.806;2023-02-22T10:53:27;51.80;;;30.55;;
11018;SDS011;5563;52.296;6.806;2023-02-22T10:56:18;54.40;;;31.65;;
11018;SDS011;5563;52.296;6.806;2023-02-22T10:58:54;51.50;;;30.73;;
11018;SDS011;5563;52.296;6.806;2023-02-22T11:01:36;51.88;;;30.02;;
11018;SDS011;5563;52.296;6.806;2023-02-22T11:04:18;48.40;;;28.80;;
11018;SDS011;5563;52.296;6.806;2023-02-22T11:09:41;47.05;;;29.48;;
11018;SDS011;5563;52.296;6.806;2023-02-22T11:13:18;45.70;;;28.27;;
11018;SDS011;5563;52.296;6.806;2023-02-22T11:19:31;42.05;;;27.50;;
11018;SDS011;5563;52.296;6.806;2023-02-22T11:24:52;41.97;;;26.63;;
11018;SDS011;5563;52.296;6.806;2023-02-22T11:27:32;41.65;;;27.23;;
11018;SDS011;5563;52.296;6.806;2023-02-22T11:32:52;41.58;;;28.17;;
11018;SDS011;5563;52.296;6.806;2023-02-22T11:35:34;42.30;;;26.73;;
11018;SDS011;5563;52.296;6.806;2023-02-22T11:38:26;42.15;;;26.75;;
11018;SDS011;5563;52.296;6.806;2023-02-22T11:43:36;39.50;;;25.92;;
11018;SDS011;5563;52.296;6.806;2023-02-22T11:46:16;37.25;;;25.67;;
11018;SDS011;5563;52.296;6.806;2023-02-22T11:57:20;36.00;;;24.90;;
11018;SDS011;5563;52.296;6.806;2023-02-22T12:03:09;35.58;;;24.80;;
11018;SDS011;5563;52.296;6.806;2023-02-22T12:09:12;35.05;;;23.45;;
11018;SDS011;5563;52.296;6.806;2023-02-22T12:15:53;36.38;;;23.05;;
11018;SDS011;5563;52.296;6.806;2023-02-22T12:19:18;32.00;;;21.67;;
11018;SDS011;5563;52.296;6.806;2023-02-22T12:21:35;32.47;;;22.95;;
11018;SDS011;5563;52.296;6.806;2023-02-22T12:24:13;32.20;;;21.92;;
11018;SDS011;5563;52.296;6.806;2023-02-22T12:26:57;31.88;;;20.90;;
11018;SDS011;5563;52.296;6.806;2023-02-22T12:29:38;31.67;;;21.35;;
11018;SDS011;5563;52.296;6.806;2023-02-22T12:32:45;31.40;;;20.75;;
11018;SDS011;5563;52.296;6.806;2023-02-22T12:35:32;28.88;;;20.73;;
11018;SDS011;5563;52.296;6.806;2023-02-22T12:41:41;29.55;;;19.23;;
11018;SDS011;5563;52.296;6.806;2023-02-22T12:44:21;28.50;;;19.33;;
11018;SDS011;5563;52.296;6.806;2023-02-22T12:47:01;30.42;;;20.38;;
11018;SDS011;5563;52.296;6.806;2023-02-22T12:49:38;29.92;;;19.10;;
11018;SDS011;5563;52.296;6.806;2023-02-22T12:52:24;30.65;;;20.52;;
11018;SDS011;5563;52.296;6.806;2023-02-22T13:00:42;29.13;;;20.40;;
11018;SDS011;5563;52.296;6.806;2023-02-22T13:03:36;27.83;;;19.65;;
11018;SDS011;5563;52.296;6.806;2023-02-22T13:06:23;29.67;;;20.20;;
11018;SDS011;5563;52.296;6.806;2023-02-22T13:20:22;28.02;;;19.45;;
11018;SDS011;5563;52.296;6.806;2023-02-22T13:25:54;29.55;;;19.23;;
11018;SDS011;5563;52.296;6.806;2023-02-22T13:28:45;27.75;;;19.05;;
11018;SDS011;5563;52.296;6.806;2023-02-22T13:34:52;27.20;;;17.85;;
11018;SDS011;5563;52.296;6.806;2023-02-22T13:37:39;28.55;;;19.60;;
11018;SDS011;5563;52.296;6.806;2023-02-22T13:44:02;26.85;;;19.23;;
11018;SDS011;5563;52.296;6.806;2023-02-22T13:46:37;29.30;;;19.58;;
11018;SDS011;5563;52.296;6.806;2023-02-22T13:49:43;32.42;;;20.17;;
11018;SDS011;5563;52.296;6.806;2023-02-22T13:52:28;29.15;;;19.63;;
11018;SDS011;5563;52.296;6.806;2023-02-22T13:55:04;31.63;;;20.25;;
11018;SDS011;5563;52.296;6.806;2023-02-22T13:57:39;31.35;;;20.48;;
11018;SDS011;5563;52.296;6.806;2023-02-22T14:00:37;31.08;;;20.27;;
11018;SDS011;5563;52.296;6.806;2023-02-22T14:10:47;33.83;;;21.50;;
11018;SDS011;5563;52.296;6.806;2023-02-22T14:13:24;30.33;;;20.95;;
11018;SDS011;5563;52.296;6.806;2023-02-22T14:21:18;28.95;;;19.50;;
11018;SDS011;5563;52.296;6.806;2023-02-22T14:23:53;30.10;;;19.77;;
11018;SDS011;5563;52.296;6.806;2023-02-22T14:26:34;27.08;;;19.60;;
11018;SDS011;5563;52.296;6.806;2023-02-22T14:34:10;30.25;;;20.35;;
11018;SDS011;5563;52.296;6.806;2023-02-22T14:36:59;28.50;;;18.88;;
11018;SDS011;5563;52.296;6.806;2023-02-22T14:39:38;31.63;;;19.75;;
11018;SDS011;5563;52.296;6.806;2023-02-22T14:47:42;29.88;;;20.65;;
11018;SDS011;5563;52.296;6.806;2023-02-22T14:50:18;30.50;;;19.50;;
11018;SDS011;5563;52.296;6.806;2023-02-22T14:53:12;28.17;;;18.85;;
11018;SDS011;5563;52.296;6.806;2023-02-22T14:55:50;26.77;;;18.52;;
11018;SDS011;5563;52.296;6.806;2023-02-22T14:58:33;31.13;;;19.10;;
11018;SDS011;5563;52.296;6.806;2023-02-22T15:01:30;27.77;;;19.67;;
11018;SDS011;5563;52.296;6.806;2023-02-22T15:06:58;27.77;;;18.10;;
11018;SDS011;5563;52.296;6.806;2023-02-22T15:09:33;28.05;;;19.23;;
11018;SDS011;5563;52.296;6.806;2023-02-22T15:14:37;26.48;;;18.20;;
11018;SDS011;5563;52.296;6.806;2023-02-22T15:17:21;26.15;;;16.67;;
11018;SDS011;5563;52.296;6.806;2023-02-22T15:19:56;25.02;;;16.75;;
11018;SDS011;5563;52.296;6.806;2023-02-22T15:22:25;24.30;;;15.93;;
11018;SDS011;5563;52.296;6.806;2023-02-22T15:25:06;20.98;;;14.73;;
11018;SDS011;5563;52.296;6.806;2023-02-22T15:27:43;24.67;;;15.88;;
11018;SDS011;5563;52.296;6.806;2023-02-22T15:30:21;21.27;;;15.40;;
11018;SDS011;5563;52.296;6.806;2023-02-22T15:33:12;23.33;;;15.70;;
11018;SDS011;5563;52.296;6.806;2023-02-22T15:35:44;24.60;;;15.90;;
11018;SDS011;5563;52.296;6.806;2023-02-22T15:38:27;21.05;;;15.38;;
11018;SDS011;5563;52.296;6.806;2023-02-22T15:41:02;25.33;;;18.67;;
11018;SDS011;5563;52.296;6.806;2023-02-22T15:43:37;24.52;;;17.02;;
11018;SDS011;5563;52.296;6.806;2023-02-22T15:46:09;23.17;;;16.13;;
11018;SDS011;5563;52.296;6.806;2023-02-22T15:48:42;24.67;;;15.98;;
11018;SDS011;5563;52.296;6.806;2023-02-22T15:51:16;20.95;;;15.85;;
11018;SDS011;5563;52.296;6.806;2023-02-22T15:53:45;23.92;;;15.50;;
11018;SDS011;5563;52.296;6.806;2023-02-22T15:56:27;23.42;;;16.40;;
11018;SDS011;5563;52.296;6.806;2023-02-22T15:59:12;22.65;;;16.20;;
11018;SDS011;5563;52.296;6.806;2023-02-22T16:01:44;25.08;;;16.75;;
11018;SDS011;5563;52.296;6.806;2023-02-22T16:04:21;24.25;;;15.80;;
11018;SDS011;5563;52.296;6.806;2023-02-22T16:06:52;22.33;;;15.48;;
11018;SDS011;5563;52.296;6.806;2023-02-22T16:09:48;23.30;;;16.50;;
11018;SDS011;5563;52.296;6.806;2023-02-22T16:14:52;29.00;;;15.77;;
11018;SDS011;5563;52.296;6.806;2023-02-22T16:17:28;24.95;;;16.63;;
11018;SDS011;5563;52.296;6.806;2023-02-22T16:20:28;23.20;;;15.68;;
11018;SDS011;5563;52.296;6.806;2023-02-22T16:22:56;24.25;;;15.35;;
11018;SDS011;5563;52.296;6.806;2023-02-22T16:25:31;27.02;;;17.95;;
11018;SDS011;5563;52.296;6.806;2023-02-22T16:28:02;34.97;;;22.90;;
11018;SDS011;5563;52.296;6.806;2023-02-22T16:30:57;23.92;;;17.27;;
11018;SDS011;5563;52.296;6.806;2023-02-22T16:33:32;25.20;;;16.75;;
11018;SDS011;5563;52.296;6.806;2023-02-22T16:36:09;21.67;;;15.43;;
11018;SDS011;5563;52.296;6.806;2023-02-22T16:38:36;23.50;;;16.38;;
11018;SDS011;5563;52.296;6.806;2023-02-22T16:41:14;22.10;;;16.00;;
11018;SDS011;5563;52.296;6.806;2023-02-22T16:43:46;21.25;;;16.40;;
11018;SDS011;5563;52.296;6.806;2023-02-22T16:46:28;22.92;;;15.55;;
11018;SDS011;5563;52.296;6.806;2023-02-22T16:48:56;24.65;;;14.98;;
11018;SDS011;5563;52.296;6.806;2023-02-22T16:51:47;21.02;;;15.30;;
11018;SDS011;5563;52.296;6.806;2023-02-22T17:05:03;21.55;;;14.90;;
11018;SDS011;5563;52.296;6.806;2023-02-22T17:07:44;20.15;;;14.45;;
11018;SDS011;5563;52.296;6.806;2023-02-22T17:10:21;19.58;;;14.57;;
11018;SDS011;5563;52.296;6.806;2023-02-22T17:12:49;20.50;;;15.27;;
11018;SDS011;5563;52.296;6.806;2023-02-22T17:22:27;19.55;;;15.23;;
11018;SDS011;5563;52.296;6.806;2023-02-22T17:24:57;20.85;;;14.88;;
11018;SDS011;5563;52.296;6.806;2023-02-22T17:27:32;20.38;;;14.63;;
11018;SDS011;5563;52.296;6.806;2023-02-22T17:30:01;17.90;;;13.98;;
11018;SDS011;5563;52.296;6.806;2023-02-22T17:32:39;21.58;;;15.07;;
11018;SDS011;5563;52.296;6.806;2023-02-22T17:35:17;18.67;;;14.55;;
11018;SDS011;5563;52.296;6.806;2023-02-22T17:38:18;23.48;;;16.80;;
11018;SDS011;5563;52.296;6.806;2023-02-22T17:40:58;25.95;;;19.23;;
11018;SDS011;5563;52.296;6.806;2023-02-22T17:43:26;30.17;;;21.63;;
11018;SDS011;5563;52.296;6.806;2023-02-22T17:46:04;31.77;;;21.35;;
11018;SDS011;5563;52.296;6.806;2023-02-22T17:48:40;32.85;;;21.90;;
11018;SDS011;5563;52.296;6.806;2023-02-22T17:51:15;30.83;;;22.02;;
11018;SDS011;5563;52.296;6.806;2023-02-22T17:53:42;29.33;;;21.50;;
11018;SDS011;5563;52.296;6.806;2023-02-22T17:56:17;29.60;;;20.88;;
11018;SDS011;5563;52.296;6.806;2023-02-22T17:58:46;28.60;;;21.50;;
11018;SDS011;5563;52.296;6.806;2023-02-22T18:01:23;25.88;;;19.08;;
11018;SDS011;5563;52.296;6.806;2023-02-22T18:04:01;25.42;;;16.63;;
11018;SDS011;5563;52.296;6.806;2023-02-22T18:06:36;20.73;;;14.85;;
11018;SDS011;5563;52.296;6.806;2023-02-22T18:09:10;20.50;;;14.98;;
11018;SDS011;5563;52.296;6.806;2023-02-22T18:11:43;21.85;;;16.00;;
11018;SDS011;5563;52.296;6.806;2023-02-22T18:14:11;23.60;;;16.20;;
11018;SDS011;5563;52.296;6.806;2023-02-22T18:16:45;23.52;;;15.27;;
11018;SDS011;5563;52.296;6.806;2023-02-22T18:19:13;22.25;;;15.55;;
11018;SDS011;5563;52.296;6.806;2023-02-22T18:21:51;23.13;;;15.55;;
11018;SDS011;5563;52.296;6.806;2023-02-22T18:24:25;20.77;;;15.40;;
11018;SDS011;5563;52.296;6.806;2023-02-22T18:26:52;18.75;;;14.50;;
11018;SDS011;5563;52.296;6.806;2023-02-22T18:29:29;21.08;;;15.98;;
11018;SDS011;5563;52.296;6.806;2023-02-22T18:31:58;20.52;;;15.43;;
11018;SDS011;5563;52.296;6.806;2023-02-22T18:34:34;22.75;;;16.38;;
11018;SDS011;5563;52.296;6.806;2023-02-22T18:37:01;20.77;;;16.67;;
11018;SDS011;5563;52.296;6.806;2023-02-22T18:39:37;23.02;;;16.88;;
11018;SDS011;5563;52.296;6.806;2023-02-22T18:42:08;23.05;;;16.73;;
11018;SDS011;5563;52.296;6.806;2023-02-22T18:44:45;18.02;;;15.00;;
11018;SDS011;5563;52.296;6.806;2023-02-22T18:47:21;18.83;;;15.30;;
11018;SDS011;5563;52.296;6.806;2023-02-22T18:49:54;18.85;;;16.65;;
11018;SDS011;5563;52.296;6.806;2023-02-22T18:52:32;19.15;;;16.67;;
11018;SDS011;5563;52.296;6.806;2023-02-22T18:55:19;20.73;;;16.98;;
11018;SDS011;5563;52.296;6.806;2023-02-22T18:57:47;17.75;;;15.85;;
11018;SDS011;5563;52.296;6.806;2023-02-22T19:00:24;20.52;;;15.85;;
11018;SDS011;5563;52.296;6.806;2023-02-22T19:02:54;23.08;;;16.40;;
11018;SDS011;5563;52.296;6.806;2023-02-22T19:05:38;18.67;;;16.15;;
11018;SDS011;5563;52.296;6.806;2023-02-22T19:08:06;21.02;;;17.45;;
11018;SDS011;5563;52.296;6.806;2023-02-22T19:10:43;18.65;;;15.68;;
11018;SDS011;5563;52.296;6.806;2023-02-22T19:13:14;20.55;;;16.27;;
11018;SDS011;5563;52.296;6.806;2023-02-22T19:15:42;18.73;;;16.08;;
11018;SDS011;5563;52.296;6.806;2023-02-22T19:18:15;22.38;;;16.98;;